sensor_id;sensor_type;location;lat;lon;timestamp;pressure;altitude;pressure_sealevel;temperature
28803;BMP280;15949;55.656;37.422;2023-02-22T00:03:51;98099.63;;;-16.01
28803;BMP280;15949;55.656;37.422;2023-02-22T00:08:58;98116.34;;;-15.95
28803;BMP280;15949;55.656;37.422;2023-02-22T00:14:04;98120.88;;;-16.05
28803;BMP280;15949;55.656;37.422;2023-02-22T00:19:09;98134.75;;;-16.18
28803;BMP280;15949;55.656;37.422;2023-02-22T00:24:15;98137.75;;;-16.22
28803;BMP280;15949;55.656;37.422;2023-02-22T00:29:27;98149.69;;;-16.18
28803;BMP280;15949;55.656;37.422;2023-02-22T00:34:33;98146.00;;;-16.22
28803;BMP280;15949;55.656;37.422;2023-02-22T00:39:39;98141.16;;;-16.30
28803;BMP280;15949;55.656;37.422;2023-02-22T00:44:44;98152.31;;;-16.40
28803;BMP280;15949;55.656;37.422;2023-02-22T00:49:50;98164.59;;;-16.45
28803;BMP280;15949;55.656;37.422;2023-02-22T00:54:56;98157.41;;;-16.48
28803;BMP280;15949;55.656;37.422;2023-02-22T01:00:05;98169.56;;;-16.60
28803;BMP280;15949;55.656;37.422;2023-02-22T01:05:18;98174.13;;;-16.64
28803;BMP280;15949;55.656;37.422;2023-02-22T01:10:27;98161.81;;;-16.65
28803;BMP280;15949;55.656;37.422;2023-02-22T01:15:34;98188.22;;;-16.71
28803;BMP280;15949;55.656;37.422;2023-02-22T01:20:39;98181.84;;;-16.73
28803;BMP280;15949;55.656;37.422;2023-02-22T01:25:45;98198.06;;;-16.77
28803;BMP280;15949;55.656;37.422;2023-02-22T01:30:51;98199.34;;;-16.81
28803;BMP280;15949;55.656;37.422;2023-02-22T01:35:56;98200.84;;;-16.87
28803;BMP280;15949;55.656;37.422;2023-02-22T01:41:03;98222.81;;;-16.91
28803;BMP280;15949;55.656;37.422;2023-02-22T01:56:36;98240.88;;;-17.11
28803;BMP280;15949;55.656;37.422;2023-02-22T02:01:43;98243.69;;;-17.14
28803;BMP280;15949;55.656;37.422;2023-02-22T02:06:51;98251.28;;;-17.31
28803;BMP280;15949;55.656;37.422;2023-02-22T02:11:58;98260.22;;;-17.44
28803;BMP280;15949;55.656;37.422;2023-02-22T02:17:12;98257.22;;;-17.54
28803;BMP280;15949;55.656;37.422;2023-02-22T02:43:50;98302.38;;;-17.74
28803;BMP280;15949;55.656;37.422;2023-02-22T02:49:03;98306.47;;;-17.81
28803;BMP280;15949;55.656;37.422;2023-02-22T02:54:10;98314.50;;;-17.79
28803;BMP280;15949;55.656;37.422;2023-02-22T02:59:24;98316.41;;;-17.81
28803;BMP280;15949;55.656;37.422;2023-02-22T03:04:39;98319.69;;;-17.88
28803;BMP280;15949;55.656;37.422;2023-02-22T03:15:26;98335.84;;;-17.93
28803;BMP280;15949;55.656;37.422;2023-02-22T03:20:57;98336.78;;;-17.94
28803;BMP280;15949;55.656;37.422;2023-02-22T03:26:07;98333.25;;;-17.99
28803;BMP280;15949;55.656;37.422;2023-02-22T03:31:24;98341.00;;;-18.02
28803;BMP280;15949;55.656;37.422;2023-02-22T03:36:36;98352.34;;;-18.08
28803;BMP280;15949;55.656;37.422;2023-02-22T03:41:47;98364.19;;;-18.10
28803;BMP280;15949;55.656;37.422;2023-02-22T03:47:00;98374.28;;;-18.11
28803;BMP280;15949;55.656;37.422;2023-02-22T03:52:07;98368.50;;;-18.12
28803;BMP280;15949;55.656;37.422;2023-02-22T03:57:17;98386.84;;;-18.13
28803;BMP280;15949;55.656;37.422;2023-02-22T04:02:25;98383.44;;;-18.20
28803;BMP280;15949;55.656;37.422;2023-02-22T04:07:30;98397.56;;;-18.29
28803;BMP280;15949;55.656;37.422;2023-02-22T04:12:36;98408.16;;;-18.27
28803;BMP280;15949;55.656;37.422;2023-02-22T04:17:42;98408.13;;;-18.18
28803;BMP280;15949;55.656;37.422;2023-02-22T04:22:48;98415.28;;;-18.15
28803;BMP280;15949;55.656;37.422;2023-02-22T04:27:53;98411.69;;;-18.21
28803;BMP280;15949;55.656;37.422;2023-02-22T04:32:59;98427.22;;;-18.19
28803;BMP280;15949;55.656;37.422;2023-02-22T04:38:04;98437.31;;;-18.20
28803;BMP280;15949;55.656;37.422;2023-02-22T04:43:10;98451.28;;;-18.19
28803;BMP280;15949;55.656;37.422;2023-02-22T04:48:16;98448.84;;;-18.28
28803;BMP280;15949;55.656;37.422;2023-02-22T04:53:22;98446.00;;;-18.25
28803;BMP280;15949;55.656;37.422;2023-02-22T04:58:27;98458.75;;;-18.36
28803;BMP280;15949;55.656;37.422;2023-02-22T05:03:33;98450.69;;;-18.38
28803;BMP280;15949;55.656;37.422;2023-02-22T05:08:38;98449.75;;;-18.45
28803;BMP280;15949;55.656;37.422;2023-02-22T05:13:44;98454.69;;;-18.53
28803;BMP280;15949;55.656;37.422;2023-02-22T05:18:49;98458.13;;;-18.54
28803;BMP280;15949;55.656;37.422;2023-02-22T05:23:55;98466.50;;;-18.47
28803;BMP280;15949;55.656;37.422;2023-02-22T05:29:02;98476.28;;;-18.53
28803;BMP280;15949;55.656;37.422;2023-02-22T05:34:07;98482.63;;;-18.51
28803;BMP280;15949;55.656;37.422;2023-02-22T05:39:13;98488.19;;;-18.57
28803;BMP280;15949;55.656;37.422;2023-02-22T05:44:19;98491.19;;;-18.53
28803;BMP280;15949;55.656;37.422;2023-02-22T05:49:24;98497.69;;;-18.52
28803;BMP280;15949;55.656;37.422;2023-02-22T05:54:30;98510.41;;;-18.47
28803;BMP280;15949;55.656;37.422;2023-02-22T05:59:35;98509.38;;;-18.37
28803;BMP280;15949;55.656;37.422;2023-02-22T06:04:45;98520.56;;;-18.33
28803;BMP280;15949;55.656;37.422;2023-02-22T06:09:51;98515.13;;;-18.36
28803;BMP280;15949;55.656;37.422;2023-02-22T06:14:57;98526.75;;;-18.29
28803;BMP280;15949;55.656;37.422;2023-02-22T06:20:03;98526.75;;;-18.29
28803;BMP280;15949;55.656;37.422;2023-02-22T06:25:12;98538.13;;;-18.18
28803;BMP280;15949;55.656;37.422;2023-02-22T06:30:21;98534.84;;;-18.02
28803;BMP280;15949;55.656;37.422;2023-02-22T06:35:27;98538.75;;;-18.16
28803;BMP280;15949;55.656;37.422;2023-02-22T06:40:33;98544.47;;;-18.07
28803;BMP280;15949;55.656;37.422;2023-02-22T06:45:38;98550.25;;;-17.91
28803;BMP280;15949;55.656;37.422;2023-02-22T06:50:44;98554.59;;;-17.84
28803;BMP280;15949;55.656;37.422;2023-02-22T06:55:52;98557.88;;;-17.76
28803;BMP280;15949;55.656;37.422;2023-02-22T07:00:57;98568.75;;;-17.52
28803;BMP280;15949;55.656;37.422;2023-02-22T07:06:05;98557.81;;;-17.43
28803;BMP280;15949;55.656;37.422;2023-02-22T07:11:10;98572.44;;;-17.32
28803;BMP280;15949;55.656;37.422;2023-02-22T07:16:16;98573.34;;;-17.17
28803;BMP280;15949;55.656;37.422;2023-02-22T07:21:22;98580.66;;;-17.15
28803;BMP280;15949;55.656;37.422;2023-02-22T07:26:27;98578.94;;;-17.07
28803;BMP280;15949;55.656;37.422;2023-02-22T07:31:34;98586.63;;;-16.86
28803;BMP280;15949;55.656;37.422;2023-02-22T07:36:40;98590.66;;;-16.76
28803;BMP280;15949;55.656;37.422;2023-02-22T07:41:45;98598.06;;;-16.60
28803;BMP280;15949;55.656;37.422;2023-02-22T07:46:51;98603.91;;;-16.45
28803;BMP280;15949;55.656;37.422;2023-02-22T07:51:57;98607.38;;;-16.23
28803;BMP280;15949;55.656;37.422;2023-02-22T07:57:02;98616.63;;;-16.01
28803;BMP280;15949;55.656;37.422;2023-02-22T08:02:14;98617.41;;;-15.86
28803;BMP280;15949;55.656;37.422;2023-02-22T08:07:20;98620.31;;;-15.74
28803;BMP280;15949;55.656;37.422;2023-02-22T08:12:25;98625.81;;;-15.64
28803;BMP280;15949;55.656;37.422;2023-02-22T08:17:31;98623.22;;;-15.48
28803;BMP280;15949;55.656;37.422;2023-02-22T08:22:36;98627.78;;;-15.22
28803;BMP280;15949;55.656;37.422;2023-02-22T08:27:42;98627.66;;;-15.20
28803;BMP280;15949;55.656;37.422;2023-02-22T08:32:49;98636.78;;;-14.83
28803;BMP280;15949;55.656;37.422;2023-02-22T08:37:57;98634.28;;;-14.32
28803;BMP280;15949;55.656;37.422;2023-02-22T08:43:03;98644.88;;;-13.94
28803;BMP280;15949;55.656;37.422;2023-02-22T08:48:09;98650.22;;;-13.76
28803;BMP280;15949;55.656;37.422;2023-02-22T08:53:15;98650.50;;;-13.43
28803;BMP280;15949;55.656;37.422;2023-02-22T08:58:21;98654.41;;;-13.34
28803;BMP280;15949;55.656;37.422;2023-02-22T09:03:26;98656.94;;;-12.93
28803;BMP280;15949;55.656;37.422;2023-02-22T09:08:32;98671.81;;;-13.19
28803;BMP280;15949;55.656;37.422;2023-02-22T09:13:38;98664.78;;;-12.62
28803;BMP280;15949;55.656;37.422;2023-02-22T09:18:43;98668.00;;;-12.07
28803;BMP280;15949;55.656;37.422;2023-02-22T09:23:49;98668.41;;;-12.10
28803;BMP280;15949;55.656;37.422;2023-02-22T09:28:54;98679.25;;;-11.90
28803;BMP280;15949;55.656;37.422;2023-02-22T09:34:00;98676.13;;;-11.98
28803;BMP280;15949;55.656;37.422;2023-02-22T09:39:06;98684.69;;;-11.73
28803;BMP280;15949;55.656;37.422;2023-02-22T09:44:31;98683.31;;;-11.76
28803;BMP280;15949;55.656;37.422;2023-02-22T09:49:46;98680.59;;;-11.61
28803;BMP280;15949;55.656;37.422;2023-02-22T09:55:19;98706.28;;;-11.26
28803;BMP280;15949;55.656;37.422;2023-02-22T10:00:35;98701.50;;;-11.27
28803;BMP280;15949;55.656;37.422;2023-02-22T10:05:47;98698.38;;;-11.23
28803;BMP280;15949;55.656;37.422;2023-02-22T10:26:49;98717.81;;;-10.72
28803;BMP280;15949;55.656;37.422;2023-02-22T10:32:02;98714.84;;;-11.27
28803;BMP280;15949;55.656;37.422;2023-02-22T10:42:29;98715.53;;;-11.00
28803;BMP280;15949;55.656;37.422;2023-02-22T10:47:35;98725.63;;;-11.07
28803;BMP280;15949;55.656;37.422;2023-02-22T10:52:41;98718.06;;;-10.49
28803;BMP280;15949;55.656;37.422;2023-02-22T10:57:50;98734.16;;;-10.50
28803;BMP280;15949;55.656;37.422;2023-02-22T11:03:00;98742.63;;;-10.38
28803;BMP280;15949;55.656;37.422;2023-02-22T11:08:29;98745.19;;;-10.57
28803;BMP280;15949;55.656;37.422;2023-02-22T11:13:38;98745.84;;;-10.24
28803;BMP280;15949;55.656;37.422;2023-02-22T11:18:44;98743.13;;;-9.85
28803;BMP280;15949;55.656;37.422;2023-02-22T11:24:01;98743.69;;;-9.82
28803;BMP280;15949;55.656;37.422;2023-02-22T11:29:17;98752.78;;;-9.82
28803;BMP280;15949;55.656;37.422;2023-02-22T11:34:26;98749.84;;;-9.47
28803;BMP280;15949;55.656;37.422;2023-02-22T11:39:32;98764.19;;;-9.79
28803;BMP280;15949;55.656;37.422;2023-02-22T11:44:39;98763.31;;;-10.36
28803;BMP280;15949;55.656;37.422;2023-02-22T11:49:48;98768.06;;;-10.46
28803;BMP280;15949;55.656;37.422;2023-02-22T12:11:14;98798.72;;;-11.41
28803;BMP280;15949;55.656;37.422;2023-02-22T12:21:45;98804.53;;;-11.34
28803;BMP280;15949;55.656;37.422;2023-02-22T12:26:59;98818.78;;;-11.61
28803;BMP280;15949;55.656;37.422;2023-02-22T12:37:21;98837.16;;;-11.60
28803;BMP280;15949;55.656;37.422;2023-02-22T12:47:53;98836.94;;;-11.65
28803;BMP280;15949;55.656;37.422;2023-02-22T12:53:11;98842.41;;;-12.03
28803;BMP280;15949;55.656;37.422;2023-02-22T12:58:26;98850.66;;;-12.22
28803;BMP280;15949;55.656;37.422;2023-02-22T13:03:37;98857.63;;;-12.11
28803;BMP280;15949;55.656;37.422;2023-02-22T13:39:02;98886.28;;;-12.33
28803;BMP280;15949;55.656;37.422;2023-02-22T13:44:26;98895.66;;;-12.48
28803;BMP280;15949;55.656;37.422;2023-02-22T13:49:50;98900.56;;;-12.62
28803;BMP280;15949;55.656;37.422;2023-02-22T13:55:02;98901.94;;;-12.59
28803;BMP280;15949;55.656;37.422;2023-02-22T14:11:00;98906.91;;;-12.87
28803;BMP280;15949;55.656;37.422;2023-02-22T14:21:19;98923.19;;;-12.98
28803;BMP280;15949;55.656;37.422;2023-02-22T14:26:26;98927.53;;;-13.06
28803;BMP280;15949;55.656;37.422;2023-02-22T14:36:57;98924.19;;;-13.13
28803;BMP280;15949;55.656;37.422;2023-02-22T14:42:21;98928.97;;;-13.18
28803;BMP280;15949;55.656;37.422;2023-02-22T14:47:38;98936.63;;;-13.27
28803;BMP280;15949;55.656;37.422;2023-02-22T14:52:46;98949.06;;;-13.33
28803;BMP280;15949;55.656;37.422;2023-02-22T15:03:30;98953.13;;;-13.47
28803;BMP280;15949;55.656;37.422;2023-02-22T15:08:38;98959.84;;;-13.47
28803;BMP280;15949;55.656;37.422;2023-02-22T15:13:51;98953.22;;;-13.55
28803;BMP280;15949;55.656;37.422;2023-02-22T15:18:59;98960.72;;;-13.55
28803;BMP280;15949;55.656;37.422;2023-02-22T15:24:05;98969.38;;;-13.57
28803;BMP280;15949;55.656;37.422;2023-02-22T15:29:18;98984.72;;;-13.60
28803;BMP280;15949;55.656;37.422;2023-02-22T15:34:31;98987.00;;;-13.66
28803;BMP280;15949;55.656;37.422;2023-02-22T15:39:37;98991.25;;;-13.66
28803;BMP280;15949;55.656;37.422;2023-02-22T15:44:52;98990.97;;;-13.71
28803;BMP280;15949;55.656;37.422;2023-02-22T15:50:37;98995.88;;;-13.63
28803;BMP280;15949;55.656;37.422;2023-02-22T15:55:44;98997.44;;;-13.62
28803;BMP280;15949;55.656;37.422;2023-02-22T16:01:02;99002.03;;;-13.66
28803;BMP280;15949;55.656;37.422;2023-02-22T16:06:12;99009.72;;;-13.67
28803;BMP280;15949;55.656;37.422;2023-02-22T16:11:36;99006.56;;;-13.69
28803;BMP280;15949;55.656;37.422;2023-02-22T16:16:44;99011.31;;;-13.74
28803;BMP280;15949;55.656;37.422;2023-02-22T16:21:58;99011.81;;;-13.79
28803;BMP280;15949;55.656;37.422;2023-02-22T16:32:20;99019.00;;;-13.76
28803;BMP280;15949;55.656;37.422;2023-02-22T16:37:25;99028.00;;;-13.81
28803;BMP280;15949;55.656;37.422;2023-02-22T16:42:32;99024.09;;;-13.84
28803;BMP280;15949;55.656;37.422;2023-02-22T16:47:38;99018.06;;;-13.89
28803;BMP280;15949;55.656;37.422;2023-02-22T16:52:44;99026.94;;;-13.87
28803;BMP280;15949;55.656;37.422;2023-02-22T16:57:53;99044.66;;;-13.88
28803;BMP280;15949;55.656;37.422;2023-02-22T17:03:01;99043.59;;;-13.94
28803;BMP280;15949;55.656;37.422;2023-02-22T17:08:10;99061.44;;;-13.97
28803;BMP280;15949;55.656;37.422;2023-02-22T17:13:18;99056.94;;;-14.02
28803;BMP280;15949;55.656;37.422;2023-02-22T17:18:26;99058.47;;;-14.01
28803;BMP280;15949;55.656;37.422;2023-02-22T17:23:34;99075.72;;;-14.06
28803;BMP280;15949;55.656;37.422;2023-02-22T17:28:40;99081.69;;;-14.07
28803;BMP280;15949;55.656;37.422;2023-02-22T17:33:46;99072.19;;;-14.11
28803;BMP280;15949;55.656;37.422;2023-02-22T17:38:51;99079.84;;;-14.13
28803;BMP280;15949;55.656;37.422;2023-02-22T17:43:57;99086.41;;;-14.12
28803;BMP280;15949;55.656;37.422;2023-02-22T17:49:03;99088.31;;;-14.14
28803;BMP280;15949;55.656;37.422;2023-02-22T17:54:08;99092.69;;;-14.16
28803;BMP280;15949;55.656;37.422;2023-02-22T17:59:14;99084.88;;;-14.13
28803;BMP280;15949;55.656;37.422;2023-02-22T18:04:19;99091.25;;;-14.10
28803;BMP280;15949;55.656;37.422;2023-02-22T18:09:25;99102.22;;;-14.11
28803;BMP280;15949;55.656;37.422;2023-02-22T18:14:31;99111.25;;;-14.10
28803;BMP280;15949;55.656;37.422;2023-02-22T18:19:36;99109.22;;;-14.07
28803;BMP280;15949;55.656;37.422;2023-02-22T18:24:42;99110.59;;;-14.04
28803;BMP280;15949;55.656;37.422;2023-02-22T18:29:47;99110.50;;;-14.11
28803;BMP280;15949;55.656;37.422;2023-02-22T18:34:53;99108.00;;;-14.11
28803;BMP280;15949;55.656;37.422;2023-02-22T18:40:00;99116.09;;;-14.09
28803;BMP280;15949;55.656;37.422;2023-02-22T18:45:06;99133.03;;;-14.11
28803;BMP280;15949;55.656;37.422;2023-02-22T18:50:12;99126.09;;;-14.09
28803;BMP280;15949;55.656;37.422;2023-02-22T18:55:19;99126.09;;;-14.09
28803;BMP280;15949;55.656;37.422;2023-02-22T19:00:25;99138.03;;;-14.11
28803;BMP280;15949;55.656;37.422;2023-02-22T19:05:34;99134.91;;;-14.13
28803;BMP280;15949;55.656;37.422;2023-02-22T19:10:40;99140.22;;;-14.16
28803;BMP280;15949;55.656;37.422;2023-02-22T19:15:45;99136.81;;;-14.23
28803;BMP280;15949;55.656;37.422;2023-02-22T19:20:57;99138.69;;;-14.17
28803;BMP280;15949;55.656;37.422;2023-02-22T19:26:03;99142.13;;;-14.18
28803;BMP280;15949;55.656;37.422;2023-02-22T19:31:16;99142.47;;;-14.21
28803;BMP280;15949;55.656;37.422;2023-02-22T19:36:21;99149.50;;;-14.24
28803;BMP280;15949;55.656;37.422;2023-02-22T19:41:27;99157.34;;;-14.27
28803;BMP280;15949;55.656;37.422;2023-02-22T19:46:34;99158.75;;;-14.33
28803;BMP280;15949;55.656;37.422;2023-02-22T19:51:40;99161.44;;;-14.34
28803;BMP280;15949;55.656;37.422;2023-02-22T19:56:46;99160.97;;;-14.38
28803;BMP280;15949;55.656;37.422;2023-02-22T20:01:55;99160.38;;;-14.40
28803;BMP280;15949;55.656;37.422;2023-02-22T20:07:00;99162.72;;;-14.47
28803;BMP280;15949;55.656;37.422;2023-02-22T20:12:06;99172.72;;;-14.47
28803;BMP280;15949;55.656;37.422;2023-02-22T20:17:12;99172.91;;;-14.48
28803;BMP280;15949;55.656;37.422;2023-02-22T20:22:21;99179.94;;;-14.52
28803;BMP280;15949;55.656;37.422;2023-02-22T20:27:26;99173.22;;;-14.59
28803;BMP280;15949;55.656;37.422;2023-02-22T20:32:32;99181.69;;;-14.60
28803;BMP280;15949;55.656;37.422;2023-02-22T20:37:37;99187.50;;;-14.68
28803;BMP280;15949;55.656;37.422;2023-02-22T20:42:45;99187.66;;;-14.69
28803;BMP280;15949;55.656;37.422;2023-02-22T20:47:53;99182.66;;;-14.69
28803;BMP280;15949;55.656;37.422;2023-02-22T20:52:59;99194.19;;;-14.68
28803;BMP280;15949;55.656;37.422;2023-02-22T20:58:04;99197.94;;;-14.73
28803;BMP280;15949;55.656;37.422;2023-02-22T21:03:10;99206.72;;;-14.77
28803;BMP280;15949;55.656;37.422;2023-02-22T21:08:15;99201.25;;;-14.80
28803;BMP280;15949;55.656;37.422;2023-02-22T21:13:21;99215.34;;;-14.79
28803;BMP280;15949;55.656;37.422;2023-02-22T21:18:27;99210.19;;;-14.86
28803;BMP280;15949;55.656;37.422;2023-02-22T21:23:33;99226.75;;;-14.85
28803;BMP280;15949;55.656;37.422;2023-02-22T21:28:38;99226.13;;;-14.87
28803;BMP280;15949;55.656;37.422;2023-02-22T21:33:47;99234.88;;;-14.91
28803;BMP280;15949;55.656;37.422;2023-02-22T21:38:56;99223.63;;;-14.95
28803;BMP280;15949;55.656;37.422;2023-02-22T21:44:01;99229.09;;;-14.91
28803;BMP280;15949;55.656;37.422;2023-02-22T21:49:08;99239.09;;;-14.99
28803;BMP280;15949;55.656;37.422;2023-02-22T21:54:14;99237.69;;;-15.02
28803;BMP280;15949;55.656;37.422;2023-02-22T21:59:21;99250.19;;;-15.10
28803;BMP280;15949;55.656;37.422;2023-02-22T22:04:30;99252.22;;;-15.14
28803;BMP280;15949;55.656;37.422;2023-02-22T22:09:36;99256.28;;;-15.13
28803;BMP280;15949;55.656;37.422;2023-02-22T22:14:45;99254.72;;;-15.14
28803;BMP280;15949;55.656;37.422;2023-02-22T22:19:51;99260.78;;;-15.24
28803;BMP280;15949;55.656;37.422;2023-02-22T22:24:56;99259.69;;;-15.22
28803;BMP280;15949;55.656;37.422;2023-02-22T22:30:02;99267.16;;;-15.22
28803;BMP280;15949;55.656;37.422;2023-02-22T22:35:09;99266.53;;;-15.32
28803;BMP280;15949;55.656;37.422;2023-02-22T22:40:24;99278.09;;;-15.31
28803;BMP280;15949;55.656;37.422;2023-02-22T22:45:29;99283.69;;;-15.37
28803;BMP280;15949;55.656;37.422;2023-02-22T22:50:36;99285.91;;;-15.42
28803;BMP280;15949;55.656;37.422;2023-02-22T22:55:42;99286.19;;;-15.45
28803;BMP280;15949;55.656;37.422;2023-02-22T23:00:48;99278.06;;;-15.55
28803;BMP280;15949;55.656;37.422;2023-02-22T23:05:53;99284.72;;;-15.64
28803;BMP280;15949;55.656;37.422;2023-02-22T23:11:05;99270.41;;;-15.62
28803;BMP280;15949;55.656;37.422;2023-02-22T23:16:13;99272.22;;;-15.72
28803;BMP280;15949;55.656;37.422;2023-02-22T23:21:19;99275.50;;;-15.71
28803;BMP280;15949;55.656;37.422;2023-02-22T23:26:28;99273.44;;;-15.84
28803;BMP280;15949;55.656;37.422;2023-02-22T23:31:34;99282.47;;;-15.83
28803;BMP280;15949;55.656;37.422;2023-02-22T23:36:43;99294.31;;;-15.85
28803;BMP280;15949;55.656;37.422;2023-02-22T23:41:50;99298.72;;;-15.87
28803;BMP280;15949;55.656;37.422;2023-02-22T23:46:56;99300.69;;;-15.91
28803;BMP280;15949;55.656;37.422;2023-02-22T23:52:03;99305.22;;;-15.94
28803;BMP280;15949;55.656;37.422;2023-02-22T23:57:09;99306.28;;;-15.97
